Time;durP1;ratioP1;P1;durP2;ratioP2;P2;SDS_P1;SDS_P2;PMS_P1;PMS_P2;Temp;Humidity;BMP_temperature;BMP_pressure;BME280_temperature;BME280_humidity;BME280_pressure;Samples;Min_cycle;Max_cycle;Signal;HPM_P1;HPM_P2
2022/04/28 00:00:13;;;;;;;16.02;6.97;;;;;;;;;;5015451;28;20045;-64
2022/04/28 00:02:59;;;;;;;10.80;6.88;;;;;;;;;;5020956;28;20045;-64
2022/04/28 00:05:25;;;;;;;9.38;6.95;;;;;;;;;;5022663;28;20064;-65
2022/04/28 00:07:52;;;;;;;10.32;6.25;;;;;;;;;;5023521;28;20057;-63
2022/04/28 00:10:18;;;;;;;9.20;5.50;;;;;;;;;;5017102;28;20854;-63
2022/04/28 00:12:45;;;;;;;12.40;6.75;;;;;;;;;;5022002;28;20974;-65
2022/04/28 00:15:11;;;;;;;11.00;7.05;;;;;;;;;;5019056;28;20057;-64
2022/04/28 00:17:37;;;;;;;13.05;7.43;;;;;;;;;;5020953;28;20045;-63
2022/04/28 00:20:05;;;;;;;11.10;7.70;;;;;;;;;;5012210;28;20041;-67
2022/04/28 00:22:31;;;;;;;16.52;8.00;;;;;;;;;;5020337;28;20471;-65
2022/04/28 00:24:57;;;;;;;14.05;8.18;;;;;;;;;;5022191;28;20104;-66
2022/04/28 00:27:23;;;;;;;16.30;8.50;;;;;;;;;;5024102;28;20091;-66
2022/04/28 00:29:49;;;;;;;14.88;8.02;;;;;;;;;;5017741;28;20052;-64
2022/04/28 00:32:14;;;;;;;11.55;8.00;;;;;;;;;;5016566;28;20656;-64
2022/04/28 00:34:41;;;;;;;19.00;10.07;;;;;;;;;;5021339;28;20381;-63
2022/04/28 00:37:08;;;;;;;22.23;10.10;;;;;;;;;;5020492;28;20048;-62
2022/04/28 00:39:38;;;;;;;16.60;10.10;;;;;;;;;;5012645;28;20053;-65
2022/04/28 00:42:22;;;;;;;16.63;9.30;;;;;;;;;;5023025;28;21048;-65
2022/04/28 00:44:48;;;;;;;20.17;10.23;;;;;;;;;;5023593;28;20045;-65
2022/04/28 00:47:15;;;;;;;21.85;10.25;;;;;;;;;;5019760;28;20490;-64
2022/04/28 00:52:29;;;;;;;16.58;10.10;;;;;;;;;;5020984;28;20056;-64
2022/04/28 00:54:56;;;;;;;14.82;10.05;;;;;;;;;;5020115;28;20053;-66
2022/04/28 00:57:22;;;;;;;17.90;10.65;;;;;;;;;;5021584;28;20053;-64
2022/04/28 00:59:50;;;;;;;16.73;10.00;;;;;;;;;;5021018;28;20279;-64
2022/04/28 01:02:19;;;;;;;16.75;10.23;;;;;;;;;;5024681;28;20052;-67
2022/04/28 01:04:47;;;;;;;17.02;9.65;;;;;;;;;;5023232;28;20528;-63
2022/04/28 01:07:13;;;;;;;15.52;9.40;;;;;;;;;;5025320;28;20045;-63
2022/04/28 01:09:41;;;;;;;13.63;9.50;;;;;;;;;;5022705;28;20270;-63
2022/04/28 01:12:16;;;;;;;15.73;9.38;;;;;;;;;;5027097;28;20052;-63
2022/04/28 01:14:46;;;;;;;15.95;9.15;;;;;;;;;;5024766;28;20538;-64
2022/04/28 01:17:12;;;;;;;18.55;9.25;;;;;;;;;;5024987;28;20479;-63
2022/04/28 01:19:38;;;;;;;18.52;9.52;;;;;;;;;;5021966;28;20048;-64
2022/04/28 01:22:05;;;;;;;15.95;8.77;;;;;;;;;;5028668;28;21190;-65
2022/04/28 01:24:31;;;;;;;14.85;9.20;;;;;;;;;;5026754;28;20450;-65
2022/04/28 01:26:59;;;;;;;13.55;9.60;;;;;;;;;;5022706;28;20127;-64
2022/04/28 01:29:26;;;;;;;16.88;9.55;;;;;;;;;;5017966;28;20099;-63
2022/04/28 01:31:52;;;;;;;14.10;9.63;;;;;;;;;;5024833;28;20057;-63
2022/04/28 01:34:18;;;;;;;14.38;10.23;;;;;;;;;;5023889;28;20048;-66
2022/04/28 01:36:44;;;;;;;12.90;9.98;;;;;;;;;;5025606;28;20064;-64
2022/04/28 01:39:11;;;;;;;15.00;10.32;;;;;;;;;;5018365;28;20049;-64
2022/04/28 01:41:37;;;;;;;16.27;11.27;;;;;;;;;;5025949;28;20067;-66
2022/04/28 01:44:03;;;;;;;17.48;9.98;;;;;;;;;;5022429;28;20510;-64
2022/04/28 01:46:29;;;;;;;15.15;10.10;;;;;;;;;;5022824;28;20056;-66
2022/04/28 01:48:55;;;;;;;19.42;9.70;;;;;;;;;;5020800;28;20405;-62
2022/04/28 01:56:51;;;;;;;18.30;10.38;;;;;;;;;;5024377;28;20389;-66
2022/04/28 01:59:16;;;;;;;14.00;10.10;;;;;;;;;;5016914;28;20044;-65
2022/04/28 02:01:42;;;;;;;19.00;10.82;;;;;;;;;;5019689;28;20222;-65
2022/04/28 02:04:08;;;;;;;17.73;11.18;;;;;;;;;;5024328;28;20053;-63
2022/04/28 02:06:34;;;;;;;15.77;11.18;;;;;;;;;;5022790;28;20047;-64
2022/04/28 02:09:00;;;;;;;17.10;12.45;;;;;;;;;;5024803;28;20068;-68
2022/04/28 02:11:26;;;;;;;20.08;12.77;;;;;;;;;;5028007;28;20423;-63
2022/04/28 02:13:52;;;;;;;20.83;12.95;;;;;;;;;;5030925;28;20045;-63
2022/04/28 02:16:18;;;;;;;20.70;13.48;;;;;;;;;;5028334;28;20077;-64
2022/04/28 02:18:44;;;;;;;23.50;15.13;;;;;;;;;;5025354;28;20931;-62
2022/04/28 02:21:10;;;;;;;22.13;15.20;;;;;;;;;;5021765;28;20455;-64
2022/04/28 02:23:35;;;;;;;27.80;16.30;;;;;;;;;;5026118;28;20118;-64
2022/04/28 02:26:01;;;;;;;23.60;16.55;;;;;;;;;;5028833;28;20509;-67
2022/04/28 02:28:28;;;;;;;29.45;17.00;;;;;;;;;;5028984;28;20044;-63
2022/04/28 02:30:54;;;;;;;25.90;19.00;;;;;;;;;;5023461;28;20508;-63
2022/04/28 02:33:20;;;;;;;22.92;16.65;;;;;;;;;;5028267;28;20057;-63
2022/04/28 02:35:46;;;;;;;24.58;16.88;;;;;;;;;;5029039;28;20351;-63
2022/04/28 02:38:12;;;;;;;24.90;17.65;;;;;;;;;;5029017;28;20308;-65
2022/04/28 02:40:38;;;;;;;25.63;18.35;;;;;;;;;;5025045;28;20060;-66
2022/04/28 02:43:04;;;;;;;29.58;18.98;;;;;;;;;;5044804;28;20119;-64
2022/04/28 02:45:30;;;;;;;29.15;19.05;;;;;;;;;;5042932;28;20131;-64
2022/04/28 02:47:57;;;;;;;29.92;19.80;;;;;;;;;;5043167;28;20045;-64
2022/04/28 02:50:22;;;;;;;25.98;19.25;;;;;;;;;;5043849;28;20056;-66
2022/04/28 02:52:50;;;;;;;31.15;20.45;;;;;;;;;;5037280;28;20504;-66
2022/04/28 02:55:16;;;;;;;31.60;20.33;;;;;;;;;;5044538;28;20594;-65
2022/04/28 02:57:42;;;;;;;33.17;20.92;;;;;;;;;;5043621;28;20079;-68
2022/04/28 03:00:08;;;;;;;32.50;21.30;;;;;;;;;;5044367;28;20600;-64
2022/04/28 03:02:35;;;;;;;31.52;21.77;;;;;;;;;;5041623;28;20053;-65
2022/04/28 03:05:04;;;;;;;33.28;22.88;;;;;;;;;;5045455;28;20056;-65
2022/04/28 03:12:59;;;;;;;32.28;22.15;;;;;;;;;;5041669;28;20138;-63
2022/04/28 03:15:26;;;;;;;35.30;23.35;;;;;;;;;;5043961;28;20515;-65
2022/04/28 03:17:52;;;;;;;31.30;22.48;;;;;;;;;;5046573;28;20053;-63
2022/04/28 03:20:17;;;;;;;36.13;24.63;;;;;;;;;;5043771;28;20041;-65
2022/04/28 03:22:43;;;;;;;34.35;24.02;;;;;;;;;;5036639;28;20074;-65
2022/04/28 03:25:10;;;;;;;38.80;25.17;;;;;;;;;;5041397;28;20484;-63
2022/04/28 03:27:36;;;;;;;37.78;24.08;;;;;;;;;;5041493;28;20033;-64
2022/04/28 03:30:08;;;;;;;35.17;24.02;;;;;;;;;;5041722;28;20047;-64
2022/04/28 03:32:33;;;;;;;36.22;23.10;;;;;;;;;;5039765;28;20060;-63
2022/04/28 03:34:59;;;;;;;30.08;21.60;;;;;;;;;;5039995;28;20059;-64
2022/04/28 03:37:25;;;;;;;33.08;22.08;;;;;;;;;;5042252;28;20095;-64
2022/04/28 03:39:51;;;;;;;34.20;21.30;;;;;;;;;;5038751;28;20526;-63
2022/04/28 03:42:17;;;;;;;30.23;21.88;;;;;;;;;;5039538;28;20068;-64
2022/04/28 03:44:43;;;;;;;34.55;21.85;;;;;;;;;;5040846;28;20068;-64
2022/04/28 03:47:09;;;;;;;25.50;19.58;;;;;;;;;;5039595;28;20095;-65
2022/04/28 03:49:35;;;;;;;31.95;20.55;;;;;;;;;;5042715;28;20057;-63
2022/04/28 03:52:01;;;;;;;29.30;20.35;;;;;;;;;;5039994;28;20144;-63
2022/04/28 03:54:27;;;;;;;29.55;20.58;;;;;;;;;;5045738;28;20144;-69
2022/04/28 03:56:52;;;;;;;33.97;22.27;;;;;;;;;;5042621;28;20071;-64
2022/04/28 03:59:19;;;;;;;35.22;23.23;;;;;;;;;;5040931;28;20048;-66
2022/04/28 04:01:44;;;;;;;34.08;23.50;;;;;;;;;;5033140;28;20057;-64
2022/04/28 04:04:10;;;;;;;32.20;23.73;;;;;;;;;;5042021;28;20434;-65
2022/04/28 04:06:36;;;;;;;37.15;24.95;;;;;;;;;;5038445;28;20056;-64
2022/04/28 04:09:02;;;;;;;34.28;25.70;;;;;;;;;;5038566;28;20143;-64
2022/04/28 04:11:28;;;;;;;40.35;25.90;;;;;;;;;;5038791;28;20414;-67
2022/04/28 04:13:54;;;;;;;37.65;26.92;;;;;;;;;;5042300;28;20054;-64
2022/04/28 04:16:19;;;;;;;46.80;28.40;;;;;;;;;;5043601;28;20041;-64
2022/04/28 04:18:46;;;;;;;41.40;28.25;;;;;;;;;;5041798;28;20091;-65
2022/04/28 04:21:12;;;;;;;41.22;27.27;;;;;;;;;;5037925;28;20068;-64
2022/04/28 04:23:38;;;;;;;41.15;28.40;;;;;;;;;;5036943;28;20281;-65
2022/04/28 04:26:04;;;;;;;40.25;27.58;;;;;;;;;;5041653;28;20425;-64
2022/04/28 04:28:30;;;;;;;39.22;26.95;;;;;;;;;;5038866;28;20068;-65
2022/04/28 04:33:41;;;;;;;36.42;27.35;;;;;;;;;;5036107;28;20309;-65
2022/04/28 04:36:06;;;;;;;44.28;28.65;;;;;;;;;;5038402;28;20048;-65
2022/04/28 04:38:32;;;;;;;39.80;28.67;;;;;;;;;;5034398;28;20076;-65
2022/04/28 04:40:58;;;;;;;44.80;29.88;;;;;;;;;;5023453;28;20491;-68
2022/04/28 04:43:24;;;;;;;45.78;30.38;;;;;;;;;;5024406;28;20045;-66
2022/04/28 04:45:50;;;;;;;42.50;29.55;;;;;;;;;;5033343;28;20466;-66
2022/04/28 04:48:16;;;;;;;44.22;31.38;;;;;;;;;;5029255;28;20049;-65
2022/04/28 04:50:42;;;;;;;43.35;29.80;;;;;;;;;;5034464;28;20057;-64
2022/04/28 04:53:08;;;;;;;48.70;30.13;;;;;;;;;;5030851;28;20146;-66
2022/04/28 04:55:42;;;;;;;45.45;30.15;;;;;;;;;;5030633;28;20245;-66
2022/04/28 04:58:08;;;;;;;51.83;31.15;;;;;;;;;;5030214;28;20482;-66
2022/04/28 05:00:34;;;;;;;48.25;32.70;;;;;;;;;;5031288;28;20078;-66
2022/04/28 05:03:00;;;;;;;47.90;31.10;;;;;;;;;;5030179;28;20057;-67
2022/04/28 05:05:26;;;;;;;44.58;31.85;;;;;;;;;;5033863;28;20102;-66
2022/04/28 05:07:52;;;;;;;39.75;29.52;;;;;;;;;;5030875;28;21155;-64
2022/04/28 05:10:18;;;;;;;47.97;30.15;;;;;;;;;;5032416;28;20411;-65
2022/04/28 05:12:44;;;;;;;41.45;29.48;;;;;;;;;;5029760;28;20064;-72
2022/04/28 05:15:09;;;;;;;47.22;31.00;;;;;;;;;;5026825;28;20110;-66
2022/04/28 05:17:36;;;;;;;43.33;28.58;;;;;;;;;;5032679;28;20041;-66
2022/04/28 05:20:03;;;;;;;41.92;28.08;;;;;;;;;;5031088;28;20301;-65
2022/04/28 05:22:29;;;;;;;44.15;30.17;;;;;;;;;;5035458;28;20052;-67
2022/04/28 05:24:55;;;;;;;42.28;28.95;;;;;;;;;;5035194;28;20064;-66
2022/04/28 05:27:20;;;;;;;45.22;31.27;;;;;;;;;;5034486;28;20052;-65
2022/04/28 05:29:46;;;;;;;40.30;29.58;;;;;;;;;;5035795;28;20374;-66
2022/04/28 05:32:12;;;;;;;46.38;30.35;;;;;;;;;;5030555;28;20053;-70
2022/04/28 05:34:38;;;;;;;45.65;31.33;;;;;;;;;;5035494;28;20060;-66
2022/04/28 05:37:05;;;;;;;45.65;30.33;;;;;;;;;;5037562;28;20049;-66
2022/04/28 05:39:31;;;;;;;43.80;30.88;;;;;;;;;;5034344;28;20056;-64
2022/04/28 05:41:57;;;;;;;51.15;31.63;;;;;;;;;;5031908;28;20056;-67
2022/04/28 05:47:08;;;;;;;50.65;32.90;;;;;;;;;;5038019;28;20103;-65
2022/04/28 05:49:34;;;;;;;52.95;33.67;;;;;;;;;;5039365;28;20061;-66
2022/04/28 05:52:01;;;;;;;48.72;32.80;;;;;;;;;;5035301;28;20065;-65
2022/04/28 05:54:27;;;;;;;50.53;33.83;;;;;;;;;;5038089;28;20049;-66
2022/04/28 05:56:53;;;;;;;56.42;36.10;;;;;;;;;;5040169;28;20084;-66
2022/04/28 05:59:19;;;;;;;53.47;35.90;;;;;;;;;;5040006;28;20081;-68
2022/04/28 06:01:45;;;;;;;54.03;36.80;;;;;;;;;;5035195;28;20347;-66
2022/04/28 06:04:11;;;;;;;49.35;34.47;;;;;;;;;;5034168;28;20063;-65
2022/04/28 06:06:37;;;;;;;53.17;35.22;;;;;;;;;;5036464;28;20274;-65
2022/04/28 06:09:03;;;;;;;48.45;34.90;;;;;;;;;;5038899;28;20106;-65
2022/04/28 06:11:29;;;;;;;55.22;35.58;;;;;;;;;;5034683;28;20566;-66
2022/04/28 06:13:55;;;;;;;58.42;38.53;;;;;;;;;;5037575;28;20132;-65
2022/04/28 06:16:21;;;;;;;54.35;36.95;;;;;;;;;;5039015;28;20567;-65
2022/04/28 06:18:47;;;;;;;57.63;37.38;;;;;;;;;;5038338;28;20127;-66
2022/04/28 06:21:13;;;;;;;60.03;38.13;;;;;;;;;;5036066;28;20853;-66
2022/04/28 06:23:39;;;;;;;62.33;39.28;;;;;;;;;;5037109;28;20055;-66
2022/04/28 06:26:05;;;;;;;59.40;37.67;;;;;;;;;;5044792;28;20045;-68
2022/04/28 06:28:31;;;;;;;55.00;36.83;;;;;;;;;;5043898;28;20456;-67
2022/04/28 06:30:57;;;;;;;53.58;37.10;;;;;;;;;;5042094;28;20057;-66
2022/04/28 06:33:23;;;;;;;55.92;36.97;;;;;;;;;;5035411;28;20137;-69
2022/04/28 06:35:49;;;;;;;49.42;34.38;;;;;;;;;;5040911;28;20057;-67
2022/04/28 06:38:14;;;;;;;55.53;35.92;;;;;;;;;;5041079;28;20091;-67
2022/04/28 06:40:40;;;;;;;46.65;33.92;;;;;;;;;;5042136;28;20451;-64
2022/04/28 06:43:06;;;;;;;47.70;33.88;;;;;;;;;;5037445;28;20041;-71
2022/04/28 06:45:32;;;;;;;45.50;33.25;;;;;;;;;;5040671;28;20049;-63
2022/04/28 06:48:05;;;;;;;51.28;35.35;;;;;;;;;;5039296;28;20044;-66
2022/04/28 06:50:31;;;;;;;47.78;32.10;;;;;;;;;;5042670;28;20845;-67
2022/04/28 06:52:57;;;;;;;42.03;30.35;;;;;;;;;;5038126;28;20211;-65
2022/04/28 06:55:24;;;;;;;37.30;26.77;;;;;;;;;;5040606;28;20052;-67
2022/04/28 06:57:49;;;;;;;36.90;26.38;;;;;;;;;;5043221;28;20060;-65
2022/04/28 07:00:16;;;;;;;31.77;25.95;;;;;;;;;;5044652;28;20404;-67
2022/04/28 07:02:42;;;;;;;32.40;24.60;;;;;;;;;;5039715;28;20423;-71
2022/04/28 07:05:08;;;;;;;33.25;26.40;;;;;;;;;;5044806;28;20049;-65
2022/04/28 07:07:34;;;;;;;34.83;25.85;;;;;;;;;;5042262;28;20789;-65
2022/04/28 07:09:59;;;;;;;37.80;26.75;;;;;;;;;;5044436;28;20105;-64
2022/04/28 07:12:25;;;;;;;35.97;26.65;;;;;;;;;;5042775;28;20462;-64
2022/04/28 07:14:51;;;;;;;40.00;27.67;;;;;;;;;;5044060;28;20071;-69
2022/04/28 07:17:17;;;;;;;36.33;26.70;;;;;;;;;;5043982;28;20045;-64
2022/04/28 07:19:43;;;;;;;40.97;26.50;;;;;;;;;;5044516;28;20049;-63
2022/04/28 07:22:08;;;;;;;39.22;26.67;;;;;;;;;;5042977;28;20052;-66
2022/04/28 07:24:37;;;;;;;34.60;25.70;;;;;;;;;;5044019;28;20102;-64
2022/04/28 07:27:03;;;;;;;38.70;24.92;;;;;;;;;;5044126;28;20127;-66
2022/04/28 07:29:29;;;;;;;31.20;21.60;;;;;;;;;;5040639;28;20492;-64
2022/04/28 07:31:55;;;;;;;31.33;22.65;;;;;;;;;;5038830;28;20057;-66
2022/04/28 07:34:21;;;;;;;29.08;21.88;;;;;;;;;;5040488;28;20064;-66
2022/04/28 07:36:47;;;;;;;30.52;21.30;;;;;;;;;;5041444;28;20081;-66
2022/04/28 07:39:13;;;;;;;28.65;21.02;;;;;;;;;;5041514;28;20503;-69
2022/04/28 07:41:39;;;;;;;29.60;20.73;;;;;;;;;;5040685;28;20063;-67
2022/04/28 07:44:04;;;;;;;32.22;21.02;;;;;;;;;;5041113;28;20049;-66
2022/04/28 07:46:30;;;;;;;26.20;18.63;;;;;;;;;;5044186;28;20485;-66
2022/04/28 07:48:56;;;;;;;26.15;19.23;;;;;;;;;;5041260;28;20212;-65
2022/04/28 07:51:22;;;;;;;32.03;20.08;;;;;;;;;;5045549;28;20140;-64
2022/04/28 07:53:48;;;;;;;31.88;19.23;;;;;;;;;;5040416;28;20063;-65
2022/04/28 07:56:15;;;;;;;30.08;19.00;;;;;;;;;;5042960;28;20518;-66
2022/04/28 07:58:44;;;;;;;27.20;19.80;;;;;;;;;;5041779;28;20123;-64
2022/04/28 08:01:12;;;;;;;28.80;18.02;;;;;;;;;;5039900;28;20526;-63
2022/04/28 08:03:39;;;;;;;24.30;16.13;;;;;;;;;;5033589;28;20049;-63
2022/04/28 08:06:05;;;;;;;24.02;14.25;;;;;;;;;;5043100;28;20044;-62
2022/04/28 08:08:33;;;;;;;22.38;13.95;;;;;;;;;;5041555;28;20500;-63
2022/04/28 08:10:59;;;;;;;20.00;13.05;;;;;;;;;;5038677;28;20448;-65
2022/04/28 08:13:25;;;;;;;20.60;13.02;;;;;;;;;;5038795;28;20128;-66
2022/04/28 08:15:53;;;;;;;26.65;13.55;;;;;;;;;;5042926;28;20135;-63
2022/04/28 08:18:19;;;;;;;16.83;12.48;;;;;;;;;;5041124;28;20085;-64
2022/04/28 08:20:45;;;;;;;22.20;13.52;;;;;;;;;;5036076;28;20053;-64
2022/04/28 08:23:11;;;;;;;23.80;13.05;;;;;;;;;;5027534;28;20048;-70
2022/04/28 08:25:37;;;;;;;17.75;12.55;;;;;;;;;;5041620;28;20048;-63
2022/04/28 08:28:03;;;;;;;20.00;12.75;;;;;;;;;;5040587;28;20118;-63
2022/04/28 08:30:30;;;;;;;22.08;13.40;;;;;;;;;;5040349;28;20047;-64
2022/04/28 08:32:56;;;;;;;25.95;13.38;;;;;;;;;;5034867;28;20068;-64
2022/04/28 08:35:22;;;;;;;18.40;12.45;;;;;;;;;;5040035;28;20047;-62
2022/04/28 08:37:47;;;;;;;22.58;13.20;;;;;;;;;;5040919;28;20053;-66
2022/04/28 08:40:14;;;;;;;19.33;12.02;;;;;;;;;;5039940;28;20051;-65
2022/04/28 08:42:42;;;;;;;19.48;12.15;;;;;;;;;;5036303;28;20072;-63
2022/04/28 08:45:08;;;;;;;27.00;13.10;;;;;;;;;;5040787;28;20107;-62
2022/04/28 08:47:34;;;;;;;20.50;13.95;;;;;;;;;;5040849;28;20131;-66
2022/04/28 08:50:00;;;;;;;22.33;14.77;;;;;;;;;;5040712;28;20109;-63
2022/04/28 08:52:26;;;;;;;21.23;13.68;;;;;;;;;;5034300;28;20061;-64
2022/04/28 08:54:54;;;;;;;24.83;14.88;;;;;;;;;;5041178;28;20166;-64
2022/04/28 08:57:23;;;;;;;23.27;15.50;;;;;;;;;;5039826;28;20033;-63
2022/04/28 08:59:51;;;;;;;22.63;15.73;;;;;;;;;;5039177;28;20484;-68
2022/04/28 09:02:26;;;;;;;24.50;15.85;;;;;;;;;;5033703;28;20073;-64
2022/04/28 09:05:00;;;;;;;23.35;15.88;;;;;;;;;;5037612;28;20716;-62
2022/04/28 09:07:37;;;;;;;26.80;16.63;;;;;;;;;;5039364;28;20127;-64
2022/04/28 09:10:26;;;;;;;20.58;15.93;;;;;;;;;;5040052;28;21066;-65
2022/04/28 09:15:47;;;;;;;24.13;17.23;;;;;;;;;;5042107;28;20413;-63
2022/04/28 09:18:14;;;;;;;25.35;17.80;;;;;;;;;;5039223;28;20290;-69
2022/04/28 09:20:42;;;;;;;22.92;17.05;;;;;;;;;;5042477;28;20119;-62
2022/04/28 09:23:10;;;;;;;25.90;16.35;;;;;;;;;;5037235;28;20171;-65
2022/04/28 09:25:36;;;;;;;37.05;17.73;;;;;;;;;;5042020;28;20258;-63
2022/04/28 09:28:03;;;;;;;22.90;16.92;;;;;;;;;;5042841;28;20135;-62
2022/04/28 09:30:49;;;;;;;24.65;16.10;;;;;;;;;;5044468;28;20114;-65
2022/04/28 09:33:18;;;;;;;24.33;15.80;;;;;;;;;;5042074;28;20117;-63
2022/04/28 09:35:45;;;;;;;21.48;15.48;;;;;;;;;;5044940;28;20044;-65
2022/04/28 09:38:11;;;;;;;30.27;15.38;;;;;;;;;;5043313;28;20045;-63
2022/04/28 09:43:21;;;;;;;25.75;12.70;;;;;;;;;;5035332;28;20123;-63
2022/04/28 09:45:49;;;;;;;34.33;13.82;;;;;;;;;;5042902;28;21387;-63
2022/04/28 09:48:17;;;;;;;20.98;14.35;;;;;;;;;;5042495;28;20045;-64
2022/04/28 09:50:43;;;;;;;32.85;13.82;;;;;;;;;;5043308;28;20063;-63
2022/04/28 09:53:11;;;;;;;16.48;11.85;;;;;;;;;;5036500;28;20508;-65
2022/04/28 09:55:40;;;;;;;14.63;9.38;;;;;;;;;;5043324;28;20132;-66
2022/04/28 09:58:07;;;;;;;23.23;10.93;;;;;;;;;;5044261;28;20049;-63
2022/04/28 10:00:33;;;;;;;21.98;11.25;;;;;;;;;;5040073;28;20097;-64
2022/04/28 10:03:03;;;;;;;13.77;10.52;;;;;;;;;;5037347;28;20045;-63
2022/04/28 10:05:29;;;;;;;21.60;10.95;;;;;;;;;;5043004;28;20132;-63
2022/04/28 10:07:55;;;;;;;24.70;11.32;;;;;;;;;;5041206;28;20124;-63
2022/04/28 10:10:21;;;;;;;26.73;10.85;;;;;;;;;;5045747;28;20052;-64
2022/04/28 10:12:48;;;;;;;21.08;10.43;;;;;;;;;;5042226;28;20100;-66
2022/04/28 10:15:15;;;;;;;25.33;10.35;;;;;;;;;;5044324;28;20344;-64
2022/04/28 10:17:57;;;;;;;14.32;9.13;;;;;;;;;;5043283;28;20084;-65
2022/04/28 10:20:35;;;;;;;12.63;8.13;;;;;;;;;;5039019;28;20044;-65
2022/04/28 10:23:05;;;;;;;16.83;8.95;;;;;;;;;;5037070;28;20545;-67
2022/04/28 10:34:11;;;;;;;15.45;9.35;;;;;;;;;;5039871;28;20104;-64
2022/04/28 10:36:52;;;;;;;13.52;8.43;;;;;;;;;;5047238;28;20064;-63
2022/04/28 10:39:39;;;;;;;14.48;8.82;;;;;;;;;;5039799;28;20080;-62
2022/04/28 10:42:19;;;;;;;17.83;9.13;;;;;;;;;;5035571;28;20442;-65
2022/04/28 10:44:57;;;;;;;13.70;8.82;;;;;;;;;;5042637;28;20063;-64
2022/04/28 10:47:37;;;;;;;11.75;7.07;;;;;;;;;;5040322;28;20545;-65
2022/04/28 10:50:20;;;;;;;15.95;8.60;;;;;;;;;;5042401;28;20061;-65
2022/04/28 10:53:01;;;;;;;13.30;8.13;;;;;;;;;;5036147;28;20076;-65
2022/04/28 10:55:34;;;;;;;17.13;8.38;;;;;;;;;;5043204;28;20095;-64
2022/04/28 10:58:20;;;;;;;15.23;8.10;;;;;;;;;;5036551;28;20049;-64
2022/04/28 11:00:57;;;;;;;15.25;7.60;;;;;;;;;;5037911;28;20083;-68
2022/04/28 11:03:50;;;;;;;16.73;7.75;;;;;;;;;;5037847;28;20119;-66
2022/04/28 11:06:21;;;;;;;13.13;8.30;;;;;;;;;;5039599;28;20102;-64
2022/04/28 11:08:53;;;;;;;14.23;7.95;;;;;;;;;;5040742;28;20472;-65
2022/04/28 11:11:20;;;;;;;12.05;7.47;;;;;;;;;;5040730;28;20052;-63
2022/04/28 11:13:49;;;;;;;11.68;7.57;;;;;;;;;;5037238;28;20092;-64
2022/04/28 11:16:16;;;;;;;13.85;6.45;;;;;;;;;;5040725;28;20056;-65
2022/04/28 11:18:43;;;;;;;15.38;6.57;;;;;;;;;;5036374;28;20128;-66
2022/04/28 11:21:10;;;;;;;12.07;7.18;;;;;;;;;;5039383;28;20546;-65
2022/04/28 11:23:43;;;;;;;13.48;7.35;;;;;;;;;;5036187;28;20163;-64
2022/04/28 11:26:09;;;;;;;15.40;7.90;;;;;;;;;;5042522;28;20053;-66
2022/04/28 11:28:36;;;;;;;16.58;7.45;;;;;;;;;;5044450;28;20048;-65
2022/04/28 11:31:10;;;;;;;12.98;7.88;;;;;;;;;;5041570;28;20052;-66
2022/04/28 11:33:41;;;;;;;14.18;7.40;;;;;;;;;;5043355;28;20239;-68
2022/04/28 11:36:19;;;;;;;11.63;7.25;;;;;;;;;;5044180;28;20063;-67
2022/04/28 11:38:51;;;;;;;13.57;7.00;;;;;;;;;;5041518;28;20068;-70
2022/04/28 11:41:23;;;;;;;10.88;5.80;;;;;;;;;;5043699;28;20032;-66
2022/04/28 11:43:50;;;;;;;14.13;5.80;;;;;;;;;;5038505;28;20055;-66
2022/04/28 11:46:16;;;;;;;9.35;5.65;;;;;;;;;;5042219;28;20261;-66
2022/04/28 11:48:42;;;;;;;12.40;5.50;;;;;;;;;;5037943;28;20389;-64
2022/04/28 11:51:09;;;;;;;9.07;5.63;;;;;;;;;;5040769;28;20048;-67
2022/04/28 11:53:42;;;;;;;13.13;5.18;;;;;;;;;;5052591;28;20702;-67
2022/04/28 11:56:20;;;;;;;11.77;5.03;;;;;;;;;;5043481;28;20057;-64
2022/04/28 11:58:50;;;;;;;12.73;5.47;;;;;;;;;;5040272;28;20102;-65
2022/04/28 12:01:19;;;;;;;8.57;5.35;;;;;;;;;;5043170;28;20057;-66
2022/04/28 12:03:54;;;;;;;19.60;5.32;;;;;;;;;;5038672;28;20049;-65
2022/04/28 12:06:22;;;;;;;18.85;5.80;;;;;;;;;;5041346;28;20141;-69
2022/04/28 12:08:55;;;;;;;8.07;5.05;;;;;;;;;;5041379;28;20073;-66
2022/04/28 12:14:28;;;;;;;11.45;4.85;;;;;;;;;;5041327;28;20769;-70
2022/04/28 12:20:04;;;;;;;7.80;4.82;;;;;;;;;;5042762;28;20715;-64
2022/04/28 12:22:39;;;;;;;6.97;4.10;;;;;;;;;;5035947;28;20877;-66
2022/04/28 12:25:11;;;;;;;10.82;4.70;;;;;;;;;;5041626;28;20433;-65
2022/04/28 12:27:38;;;;;;;7.10;4.63;;;;;;;;;;5040992;28;20153;-64
2022/04/28 12:30:08;;;;;;;13.65;5.28;;;;;;;;;;5043240;28;20053;-65
2022/04/28 12:33:03;;;;;;;9.93;5.10;;;;;;;;;;5036450;28;20049;-67
2022/04/28 12:35:30;;;;;;;;;;;;;;;;;;5042321;28;20495;-69
2022/04/28 12:38:07;;;;;;;11.20;5.80;;;;;;;;;;5043183;28;19928;-64
2022/04/28 12:40:39;;;;;;;12.68;5.22;;;;;;;;;;5044829;28;20407;-65
2022/04/28 12:43:05;;;;;;;13.85;5.30;;;;;;;;;;5038796;28;20190;-68
2022/04/28 12:45:47;;;;;;;7.03;4.10;;;;;;;;;;5041608;28;20040;-67
2022/04/28 12:48:38;;;;;;;5.97;3.05;;;;;;;;;;5044270;28;20055;-69
2022/04/28 12:51:15;;;;;;;7.20;2.67;;;;;;;;;;5040775;28;20045;-64
2022/04/28 12:53:44;;;;;;;8.10;2.97;;;;;;;;;;5036184;28;20488;-68
2022/04/28 12:56:17;;;;;;;16.10;3.10;;;;;;;;;;5039732;28;20056;-62
2022/04/28 12:58:51;;;;;;;10.80;3.45;;;;;;;;;;5041412;28;20410;-64
2022/04/28 13:01:19;;;;;;;8.25;3.28;;;;;;;;;;5041378;28;20486;-66
2022/04/28 13:03:58;;;;;;;7.63;3.72;;;;;;;;;;5034531;28;20060;-65
2022/04/28 13:06:27;;;;;;;8.15;3.55;;;;;;;;;;5037280;28;20515;-65
2022/04/28 13:08:54;;;;;;;10.38;3.65;;;;;;;;;;5039809;28;20099;-67
2022/04/28 13:11:31;;;;;;;11.95;4.00;;;;;;;;;;5041217;28;20058;-65
2022/04/28 13:13:58;;;;;;;13.60;3.88;;;;;;;;;;5042668;28;20064;-69
2022/04/28 13:16:25;;;;;;;8.13;4.30;;;;;;;;;;5041189;28;20045;-66
2022/04/28 13:18:52;;;;;;;12.40;4.47;;;;;;;;;;5042483;28;20041;-66
2022/04/28 13:21:18;;;;;;;6.20;3.42;;;;;;;;;;5040867;28;20048;-66
2022/04/28 13:23:45;;;;;;;9.15;4.53;;;;;;;;;;5036099;28;20068;-68
2022/04/28 13:26:13;;;;;;;7.82;4.50;;;;;;;;;;5041561;28;20049;-64
2022/04/28 13:28:39;;;;;;;9.57;4.72;;;;;;;;;;5040305;28;20057;-66
2022/04/28 13:31:05;;;;;;;9.18;4.80;;;;;;;;;;5034166;28;20493;-66
2022/04/28 13:33:32;;;;;;;8.98;4.95;;;;;;;;;;5036609;28;20150;-65
2022/04/28 13:35:59;;;;;;;7.03;4.60;;;;;;;;;;5042084;28;20133;-70
2022/04/28 13:38:25;;;;;;;10.07;4.63;;;;;;;;;;5040868;28;20111;-64
2022/04/28 13:40:51;;;;;;;14.90;5.43;;;;;;;;;;5040087;28;20136;-66
2022/04/28 13:43:17;;;;;;;13.63;5.80;;;;;;;;;;5037022;28;20041;-67
2022/04/28 13:45:43;;;;;;;8.38;4.35;;;;;;;;;;5039791;28;20397;-66
2022/04/28 13:48:12;;;;;;;10.23;4.72;;;;;;;;;;5042085;28;20475;-65
2022/04/28 13:50:39;;;;;;;8.77;3.80;;;;;;;;;;5041539;28;20496;-68
2022/04/28 13:53:08;;;;;;;6.93;4.20;;;;;;;;;;5038730;28;20056;-66
2022/04/28 13:55:35;;;;;;;8.00;4.40;;;;;;;;;;5041364;28;20045;-67
2022/04/28 13:58:02;;;;;;;7.10;4.22;;;;;;;;;;5039087;28;20076;-67
2022/04/28 14:00:28;;;;;;;10.45;4.45;;;;;;;;;;5039623;28;20047;-67
2022/04/28 14:02:54;;;;;;;8.52;4.03;;;;;;;;;;5038793;28;20045;-63
2022/04/28 14:05:20;;;;;;;7.72;3.28;;;;;;;;;;5041220;28;20470;-65
2022/04/28 14:07:46;;;;;;;8.07;3.58;;;;;;;;;;5041616;28;20507;-65
2022/04/28 14:10:12;;;;;;;9.18;3.85;;;;;;;;;;5045716;28;20059;-67
2022/04/28 14:12:40;;;;;;;7.43;3.38;;;;;;;;;;5042372;28;20074;-63
2022/04/28 14:15:07;;;;;;;6.03;2.92;;;;;;;;;;5042130;28;20144;-65
2022/04/28 14:17:35;;;;;;;9.13;3.50;;;;;;;;;;5042937;28;20051;-66
2022/04/28 14:20:03;;;;;;;8.50;2.88;;;;;;;;;;5046444;28;20362;-65
2022/04/28 14:22:29;;;;;;;8.00;3.33;;;;;;;;;;5039710;28;20052;-64
2022/04/28 14:24:55;;;;;;;5.78;2.38;;;;;;;;;;5039745;28;20045;-66
2022/04/28 14:27:21;;;;;;;4.32;2.42;;;;;;;;;;5045077;28;20134;-66
2022/04/28 14:29:47;;;;;;;6.05;2.28;;;;;;;;;;5042506;28;20392;-65
2022/04/28 14:32:13;;;;;;;5.63;2.55;;;;;;;;;;5039664;28;20053;-64
2022/04/28 14:34:39;;;;;;;6.43;2.90;;;;;;;;;;5042948;28;20048;-66
2022/04/28 14:37:06;;;;;;;6.78;2.85;;;;;;;;;;5042057;28;20053;-64
2022/04/28 14:39:35;;;;;;;5.88;2.53;;;;;;;;;;5040859;28;20339;-65
2022/04/28 14:42:04;;;;;;;6.03;2.60;;;;;;;;;;5039864;28;20507;-64
2022/04/28 14:44:30;;;;;;;6.65;2.80;;;;;;;;;;5043215;28;20427;-64
2022/04/28 14:46:58;;;;;;;11.30;3.13;;;;;;;;;;5042147;28;20403;-65
2022/04/28 14:52:21;;;;;;;4.80;2.55;;;;;;;;;;5038561;28;20464;-65
2022/04/28 14:54:53;;;;;;;6.95;2.83;;;;;;;;;;5041730;28;20166;-64
2022/04/28 14:57:27;;;;;;;7.03;3.00;;;;;;;;;;5041998;28;20053;-65
2022/04/28 14:59:54;;;;;;;5.05;2.50;;;;;;;;;;5041542;28;20055;-64
2022/04/28 15:02:20;;;;;;;5.55;2.50;;;;;;;;;;5041995;28;20141;-65
2022/04/28 15:04:47;;;;;;;3.72;1.95;;;;;;;;;;5044864;28;20063;-66
2022/04/28 15:07:14;;;;;;;5.55;2.45;;;;;;;;;;5045685;28;20480;-66
2022/04/28 15:09:42;;;;;;;4.25;1.70;;;;;;;;;;5043611;28;20033;-65